Time;durP1;ratioP1;P1;durP2;ratioP2;P2;SDS_P1;SDS_P2;PMS_P1;PMS_P2;Temp;Humidity;BMP_temperature;BMP_pressure;BME280_temperature;BME280_humidity;BME280_pressure;Samples;Min_cycle;Max_cycle;Signal;HPM_P1;HPM_P2
2022/01/21 00:00:58;;;;;;;;;;;;;;;1.16;90.44;101951.59;5053364;28;20434;-75
2022/01/21 00:03:24;;;;;;;;;;;;;;;1.21;90.77;101954.88;5050264;28;19933;-75
2022/01/21 00:05:49;;;;;;;;;;;;;;;1.22;91.09;101946.16;5051703;28;20424;-75
2022/01/21 00:08:15;;;;;;;;;;;;;;;1.17;89.72;101942.00;5052130;28;19928;-75
2022/01/21 00:10:41;;;;;;;;;;;;;;;1.19;90.25;101937.59;5047885;28;19921;-75
2022/01/21 00:13:15;;;;;;;;;;;;;;;1.19;90.97;101938.47;5051177;28;19921;-75
2022/01/21 00:15:40;;;;;;;;;;;;;;;1.17;91.04;101937.69;5046665;28;20357;-75
2022/01/21 00:18:07;;;;;;;;;;;;;;;1.19;91.65;101935.88;5050784;28;19928;-75
2022/01/21 00:31:27;;;;;;;;;;;;;;;1.19;90.06;101937.59;5035306;28;19927;-76
2022/01/21 00:33:53;;;;;;;;;;;;;;;1.18;89.77;101943.72;5030424;28;20346;-76
2022/01/21 00:36:18;;;;;;;;;;;;;;;1.16;89.92;101953.34;5025111;28;19921;-75
2022/01/21 00:38:44;;;;;;;;;;;;;;;1.16;89.42;101948.97;5030602;28;19921;-75
2022/01/21 00:41:10;;;;;;;;;;;;;;;1.15;89.36;101949.06;5023827;28;19928;-75
2022/01/21 00:43:44;;;;;;;;;;;;;;;1.20;89.56;101949.75;5033096;28;19926;-75
2022/01/21 00:46:09;;;;;;;;;;;;;;;1.14;87.99;101957.75;5033938;28;19964;-75
2022/01/21 00:48:34;;;;;;;;;;;;;;;1.15;87.66;101962.94;5027605;28;20366;-75
2022/01/21 00:51:00;;;;;;;;;;;;;;;1.08;87.92;101964.06;5035983;28;20019;-75
2022/01/21 00:53:25;;;;;;;;;;;;;;;1.10;88.67;101962.25;5031679;28;19959;-75
2022/01/21 00:55:50;;;;;;;;;;;;;;;1.00;87.75;101958.25;5007012;28;20020;-75
2022/01/21 00:58:15;;;;;;;;;;;;;;;1.06;87.88;101971.06;5020616;28;19917;-75
2022/01/21 01:00:40;;;;;;;;;;;;;;;1.06;88.21;101971.91;5031897;28;20340;-75
2022/01/21 01:03:05;;;;;;;;;;;;;;;1.11;87.93;101973.50;5023784;28;20018;-75
2022/01/21 01:05:31;;;;;;;;;;;;;;;1.05;87.00;101977.19;5030043;28;20350;-75
2022/01/21 01:07:58;;;;;;;;;;;;;;;0.98;87.57;101966.16;5023481;28;19921;-75
2022/01/21 01:10:39;;;;;;;;;;;;;;;0.82;87.76;101963.22;5028382;28;19924;-75
2022/01/21 01:21:16;;;;;;;;;;;;;;;0.35;88.47;101989.09;5047830;28;19932;-75
2022/01/21 01:24:04;;;;;;;;;;;;;;;0.30;89.12;101988.41;5043973;28;19921;-75
2022/01/21 01:29:15;;;;;;;;;;;;;;;0.34;88.89;101987.41;5026564;28;19985;-75
2022/01/21 01:31:40;;;;;;;;;;;;;;;0.28;88.67;101995.41;5022742;28;19940;-75
2022/01/21 01:34:06;;;;;;;;;;;;;;;0.22;88.87;101993.00;5020366;28;19918;-76
2022/01/21 01:36:31;;;;;;;;;;;;;;;0.19;89.22;101998.28;5020432;28;19933;-75
2022/01/21 01:41:31;;;;;;;;;;;;;;;0.09;89.59;101992.53;5015077;28;19918;-75
2022/01/21 01:51:52;;;;;;;;;;;;;;;-0.13;90.17;101976.75;5018104;28;19929;-75
2022/01/21 01:54:17;;;;;;;;;;;;;;;-0.12;90.13;101982.78;5026069;28;19925;-75
2022/01/21 01:56:45;;;;;;;;;;;;;;;-0.15;90.65;101975.09;5035410;28;19940;-75
2022/01/21 01:59:10;;;;;;;;;;;;;;;-0.18;91.30;101972.59;5026991;28;20378;-75
2022/01/21 02:01:35;;;;;;;;;;;;;;;-0.27;91.01;101968.53;5019956;28;19923;-75
2022/01/21 02:04:01;;;;;;;;;;;;;;;-0.30;91.51;101973.81;5016243;28;19925;-75
2022/01/21 02:06:26;;;;;;;;;;;;;;;-0.38;91.43;101975.78;5009269;28;19928;-75
2022/01/21 02:08:51;;;;;;;;;;;;;;;-0.39;92.75;101987.09;5028618;28;19917;-75
2022/01/21 02:11:17;;;;;;;;;;;;;;;-0.40;92.83;101988.00;5026681;28;19932;-75
2022/01/21 02:13:49;;;;;;;;;;;;;;;-0.40;94.15;101980.22;5019624;28;19936;-75
2022/01/21 02:16:32;;;;;;;;;;;;;;;-0.40;93.54;101983.66;5024861;28;19921;-75
2022/01/21 02:21:45;;;;;;;;;;;;;;;-0.46;93.75;101973.44;5021775;28;20187;-75
2022/01/21 02:24:14;;;;;;;;;;;;;;;-0.53;92.94;101967.56;5027917;28;20087;-75
2022/01/21 02:26:40;;;;;;;;;;;;;;;-0.65;92.56;101960.97;5010754;28;20012;-75
2022/01/21 02:29:07;;;;;;;;;;;;;;;-0.69;93.26;101969.75;5025587;28;20001;-75
2022/01/21 02:31:33;;;;;;;;;;;;;;;-0.71;94.47;101973.31;5029296;28;20370;-75
2022/01/21 02:33:58;;;;;;;;;;;;;;;-0.68;92.12;101976.66;5027892;28;19936;-75
2022/01/21 02:36:24;;;;;;;;;;;;;;;-0.69;91.26;101982.75;5011511;28;19928;-75
2022/01/21 02:38:49;;;;;;;;;;;;;;;-0.71;91.01;101983.69;5031381;28;19917;-75
2022/01/21 02:41:15;;;;;;;;;;;;;;;-0.72;90.85;101992.34;5027912;28;19921;-75
2022/01/21 02:43:40;;;;;;;;;;;;;;;-0.77;91.04;102000.28;5026258;28;20337;-75
2022/01/21 02:46:08;;;;;;;;;;;;;;;-0.80;93.21;101996.94;5031874;28;19917;-75
2022/01/21 02:48:37;;;;;;;;;;;;;;;-0.85;93.48;102002.25;5032002;28;20326;-75
2022/01/21 02:51:02;;;;;;;;;;;;;;;-0.94;94.32;102007.69;5030252;28;19921;-75
2022/01/21 02:56:16;;;;;;;;;;;;;;;-1.07;95.09;102014.97;5034392;28;19927;-75
2022/01/21 02:58:42;;;;;;;;;;;;;;;-1.08;95.30;102010.66;5033205;28;19921;-75
2022/01/21 03:01:08;;;;;;;;;;;;;;;-1.02;95.48;102010.50;5033156;28;19968;-75
2022/01/21 03:03:33;;;;;;;;;;;;;;;-0.97;95.66;102015.56;5012145;28;19921;-75
2022/01/21 03:06:00;;;;;;;;;;;;;;;-0.90;94.97;102027.50;5032315;28;19917;-75
2022/01/21 03:08:25;;;;;;;;;;;;;;;-0.84;94.14;102029.91;5013468;28;19947;-75
2022/01/21 03:10:50;;;;;;;;;;;;;;;-0.86;94.95;102021.31;5031267;28;19928;-75
2022/01/21 03:13:17;;;;;;;;;;;;;;;-0.87;95.49;102017.88;5032564;28;20389;-75
2022/01/21 03:15:42;;;;;;;;;;;;;;;-0.86;95.73;102023.91;5031754;28;19921;-75
2022/01/21 03:18:07;;;;;;;;;;;;;;;-0.87;95.83;102025.66;5031337;28;19924;-75
2022/01/21 03:20:32;;;;;;;;;;;;;;;-0.81;95.99;102022.06;5032547;28;19929;-75
2022/01/21 03:23:00;;;;;;;;;;;;;;;-0.76;96.37;102012.38;5033060;28;19917;-75
2022/01/21 03:25:25;;;;;;;;;;;;;;;-0.72;96.03;102008.78;5029150;28;19925;-75
2022/01/21 03:27:50;;;;;;;;;;;;;;;-0.66;94.75;102024.22;5013422;28;19924;-75
2022/01/21 03:30:16;;;;;;;;;;;;;;;-0.57;93.14;102014.44;5031728;28;19943;-75
2022/01/21 03:32:41;;;;;;;;;;;;;;;-0.61;94.57;102013.69;5027572;28;20173;-75
2022/01/21 03:35:06;;;;;;;;;;;;;;;-0.57;94.58;102027.44;5012505;28;20385;-75
2022/01/21 03:37:31;;;;;;;;;;;;;;;-0.53;94.06;102022.13;5028727;28;20389;-75
2022/01/21 03:39:57;;;;;;;;;;;;;;;-0.44;93.26;102024.44;5023742;28;19920;-75
2022/01/21 03:42:22;;;;;;;;;;;;;;;-0.43;93.30;102033.09;5032916;28;19917;-75
2022/01/21 03:44:47;;;;;;;;;;;;;;;-0.39;92.50;102039.91;5033746;28;19948;-75
2022/01/21 03:47:12;;;;;;;;;;;;;;;-0.39;92.33;102039.06;5031707;28;20395;-75
2022/01/21 03:49:41;;;;;;;;;;;;;;;-0.42;92.85;102053.00;5029626;28;19921;-75
2022/01/21 03:52:06;;;;;;;;;;;;;;;-0.43;93.07;102046.97;5033369;28;19927;-75
2022/01/21 03:54:32;;;;;;;;;;;;;;;-0.48;93.68;102051.44;5036315;28;19925;-75
2022/01/21 03:56:59;;;;;;;;;;;;;;;-0.54;94.11;102042.97;5036464;28;19921;-75
2022/01/21 03:59:24;;;;;;;;;;;;;;;-0.61;93.98;102052.66;5031237;28;20389;-75
2022/01/21 04:01:49;;;;;;;;;;;;;;;-0.71;94.70;102052.06;5030882;28;19921;-75
2022/01/21 04:04:15;;;;;;;;;;;;;;;-0.81;94.35;102062.72;5016589;28;19932;-76
2022/01/21 04:06:40;;;;;;;;;;;;;;;-0.84;94.62;102050.69;5034863;28;19929;-75
2022/01/21 04:09:05;;;;;;;;;;;;;;;-0.89;94.82;102055.16;5023780;28;20219;-76
2022/01/21 04:11:30;;;;;;;;;;;;;;;-0.96;95.28;102054.47;5029424;28;19932;-75
2022/01/21 04:13:56;;;;;;;;;;;;;;;-1.00;95.11;102051.97;5033159;28;19921;-75
2022/01/21 04:16:21;;;;;;;;;;;;;;;-1.13;95.58;102054.91;5037163;28;19929;-75
2022/01/21 04:18:46;;;;;;;;;;;;;;;-1.17;96.85;102048.09;5029175;28;19925;-75
2022/01/21 04:21:12;;;;;;;;;;;;;;;-1.17;96.79;102032.53;5035763;28;19956;-75
2022/01/21 04:23:37;;;;;;;;;;;;;;;-1.18;96.73;102035.16;5032791;28;19979;-75
2022/01/21 04:26:02;;;;;;;;;;;;;;;-1.15;96.34;102041.09;5014170;28;19940;-75
2022/01/21 04:28:29;;;;;;;;;;;;;;;-1.19;96.97;102042.09;5030137;28;19995;-75
2022/01/21 04:30:54;;;;;;;;;;;;;;;-1.14;95.89;102042.81;5023201;28;19921;-75
2022/01/21 04:33:19;;;;;;;;;;;;;;;-1.17;96.99;102042.91;5028086;28;20028;-75
2022/01/21 04:35:45;;;;;;;;;;;;;;;-1.12;97.83;102046.22;5022450;28;19925;-75
2022/01/21 04:38:14;;;;;;;;;;;;;;;-0.99;95.53;102046.75;5030689;28;19921;-75
2022/01/21 04:40:47;;;;;;;;;;;;;;;-0.99;94.81;102043.31;5023967;28;20350;-75
2022/01/21 04:48:40;;;;;;;;;;;;;;;-0.86;95.07;102047.28;5029634;28;19967;-75
2022/01/21 04:53:36;;;;;;;;;;;;;;;-0.86;96.02;102060.25;5029276;28;20425;-75
2022/01/21 04:56:02;;;;;;;;;;;;;;;-0.87;95.65;102064.59;5018334;28;20001;-76
2022/01/21 04:58:27;;;;;;;;;;;;;;;-0.84;96.58;102065.41;5020349;28;20305;-76
2022/01/21 05:00:52;;;;;;;;;;;;;;;-0.81;96.33;102075.72;5025382;28;19929;-75
2022/01/21 05:03:18;;;;;;;;;;;;;;;-0.80;97.11;102070.50;5028183;28;19917;-75
2022/01/21 05:05:43;;;;;;;;;;;;;;;-0.76;96.80;102079.03;5029163;28;19921;-75
2022/01/21 05:08:19;;;;;;;;;;;;;;;-0.76;96.77;102079.03;5021932;28;19968;-75
2022/01/21 05:10:45;;;;;;;;;;;;;;;-0.79;96.78;102082.56;5022944;28;19975;-75
2022/01/21 05:13:10;;;;;;;;;;;;;;;-0.69;95.66;102091.84;5029319;28;19917;-75
2022/01/21 05:15:58;;;;;;;;;;;;;;;-0.68;95.21;102092.69;5022986;28;19921;-75
2022/01/21 05:18:24;;;;;;;;;;;;;;;-0.68;95.91;102083.16;5025985;28;19953;-75
2022/01/21 05:20:49;;;;;;;;;;;;;;;-0.74;96.13;102085.06;5030063;28;19964;-75
2022/01/21 05:23:14;;;;;;;;;;;;;;;-0.69;94.95;102089.25;5013266;28;19983;-75
2022/01/21 05:25:40;;;;;;;;;;;;;;;-0.68;95.43;102090.94;5027789;28;20196;-75
2022/01/21 05:28:05;;;;;;;;;;;;;;;-0.61;95.73;102080.41;5000116;28;19921;-76
2022/01/21 05:30:30;;;;;;;;;;;;;;;-0.56;95.09;102089.75;5028591;28;19921;-75
2022/01/21 05:32:56;;;;;;;;;;;;;;;-0.61;95.26;102081.25;5006993;28;19927;-75
2022/01/21 05:35:21;;;;;;;;;;;;;;;-0.63;95.43;102087.38;5036018;28;19948;-75
2022/01/21 05:37:46;;;;;;;;;;;;;;;-0.62;95.41;102089.94;5025712;28;20398;-75
2022/01/21 05:40:17;;;;;;;;;;;;;;;-0.63;95.71;102093.41;5017388;28;19924;-76
2022/01/21 05:42:42;;;;;;;;;;;;;;;-0.57;96.18;102095.00;5023680;28;19929;-75
2022/01/21 05:47:33;;;;;;;;;;;;;;;-0.41;95.44;102114.47;5030309;28;19964;-75
2022/01/21 05:49:58;;;;;;;;;;;;;;;-0.34;95.52;102126.41;5022574;28;19922;-75
2022/01/21 05:52:34;;;;;;;;;;;;;;;-0.29;95.11;102115.88;5027600;28;19921;-75
2022/01/21 05:54:59;;;;;;;;;;;;;;;-0.32;95.42;102123.78;5030104;28;19921;-75
2022/01/21 05:57:24;;;;;;;;;;;;;;;-0.26;95.35;102126.22;5013585;28;19998;-75
2022/01/21 05:59:49;;;;;;;;;;;;;;;-0.18;95.41;102126.84;5015146;28;19928;-75
2022/01/21 06:02:15;;;;;;;;;;;;;;;-0.08;94.50;102130.03;5020428;28;19928;-75
2022/01/21 06:04:42;;;;;;;;;;;;;;;-0.08;94.14;102136.06;5036545;28;19925;-75
2022/01/21 06:07:08;;;;;;;;;;;;;;;-0.06;93.87;102134.28;5024629;28;19921;-75
2022/01/21 06:09:33;;;;;;;;;;;;;;;-0.06;93.95;102133.44;5027339;28;20360;-75
2022/01/21 06:11:58;;;;;;;;;;;;;;;0.01;93.62;102134.97;5029184;28;19932;-75
2022/01/21 06:14:26;;;;;;;;;;;;;;;-0.04;93.61;102132.50;5015115;28;19924;-75
2022/01/21 06:16:52;;;;;;;;;;;;;;;-0.06;93.38;102136.88;5015206;28;20059;-75
2022/01/21 06:19:17;;;;;;;;;;;;;;;-0.03;93.13;102125.53;5029562;28;20355;-75
2022/01/21 06:21:42;;;;;;;;;;;;;;;0.08;92.73;102126.09;5024543;28;20439;-75
2022/01/21 06:24:07;;;;;;;;;;;;;;;-0.01;92.54;102132.41;5032431;28;20004;-76
2022/01/21 06:26:34;;;;;;;;;;;;;;;-0.07;92.64;102124.78;5025834;28;19921;-75
2022/01/21 06:29:00;;;;;;;;;;;;;;;-0.23;94.02;102137.38;5033054;28;19921;-75
2022/01/21 06:31:25;;;;;;;;;;;;;;;-0.19;93.64;102137.25;5029260;28;19979;-75
2022/01/21 06:33:50;;;;;;;;;;;;;;;-0.07;92.65;102129.13;5023368;28;19928;-75
2022/01/21 06:36:15;;;;;;;;;;;;;;;-0.08;92.62;102143.03;5006726;28;19922;-75
2022/01/21 06:38:40;;;;;;;;;;;;;;;-0.11;92.95;102137.91;5033105;28;19917;-75
2022/01/21 06:41:06;;;;;;;;;;;;;;;-0.10;92.94;102137.84;5030057;28;20412;-75
2022/01/21 06:43:31;;;;;;;;;;;;;;;-0.11;92.90;102143.13;5019197;28;20263;-75
2022/01/21 06:45:56;;;;;;;;;;;;;;;-0.20;92.67;102141.63;5031100;28;19925;-75
2022/01/21 06:48:21;;;;;;;;;;;;;;;-0.32;93.06;102136.75;5014475;28;20344;-75
2022/01/21 06:50:47;;;;;;;;;;;;;;;-0.33;93.13;102137.69;5032122;28;19928;-75
2022/01/21 06:53:12;;;;;;;;;;;;;;;-0.36;93.59;102135.97;5052608;28;20389;-75
2022/01/21 06:55:37;;;;;;;;;;;;;;;-0.30;93.20;102138.44;5016952;28;19921;-75
2022/01/21 06:58:04;;;;;;;;;;;;;;;-0.20;92.72;102145.97;5025522;28;19925;-75
2022/01/21 07:00:29;;;;;;;;;;;;;;;-0.16;92.94;102147.59;5033352;28;19960;-75
2022/01/21 07:02:54;;;;;;;;;;;;;;;-0.18;92.69;102137.22;5029774;28;20345;-75
2022/01/21 07:05:22;;;;;;;;;;;;;;;-0.20;92.60;102149.41;5032305;28;20418;-75
2022/01/21 07:07:47;;;;;;;;;;;;;;;-0.19;92.70;102147.66;5027469;28;20012;-75
2022/01/21 07:10:13;;;;;;;;;;;;;;;-0.31;92.43;102148.84;5022312;28;19987;-76
2022/01/21 07:12:39;;;;;;;;;;;;;;;-0.24;92.00;102140.00;5029842;28;20298;-75
2022/01/21 07:15:05;;;;;;;;;;;;;;;-0.26;91.83;102139.22;5034277;28;19924;-75
2022/01/21 07:17:30;;;;;;;;;;;;;;;-0.32;91.89;102142.81;5033221;28;19921;-75
2022/01/21 07:19:56;;;;;;;;;;;;;;;-0.36;92.18;102154.16;5033248;28;19927;-75
2022/01/21 07:22:21;;;;;;;;;;;;;;;-0.43;92.74;102150.91;5013920;28;20270;-75
2022/01/21 07:24:46;;;;;;;;;;;;;;;-0.43;92.96;102155.22;5031944;28;20203;-75
2022/01/21 07:27:11;;;;;;;;;;;;;;;-0.37;92.82;102156.84;5005178;28;20384;-75
2022/01/21 07:29:37;;;;;;;;;;;;;;;-0.27;92.51;102151.34;5028532;28;19921;-75
2022/01/21 07:32:02;;;;;;;;;;;;;;;-0.16;92.14;102148.44;5042242;28;20031;-75
2022/01/21 07:34:27;;;;;;;;;;;;;;;-0.15;92.25;102155.34;5046152;28;19925;-75
2022/01/21 07:36:53;;;;;;;;;;;;;;;-0.12;92.52;102160.47;5035411;28;19929;-75
2022/01/21 07:39:19;;;;;;;;;;;;;;;-0.02;92.30;102155.88;5048693;28;20381;-75
2022/01/21 07:41:44;;;;;;;;;;;;;;;0.00;92.15;102167.09;5033132;28;19965;-75
2022/01/21 07:44:09;;;;;;;;;;;;;;;-0.08;92.79;102169.88;5021993;28;20374;-75
2022/01/21 07:46:35;;;;;;;;;;;;;;;-0.01;92.63;102173.16;5030168;28;20408;-76
2022/01/21 07:49:01;;;;;;;;;;;;;;;0.03;92.40;102171.34;5030629;28;19925;-75
2022/01/21 07:51:26;;;;;;;;;;;;;;;0.10;92.07;102165.06;5031202;28;20314;-75
2022/01/21 07:53:51;;;;;;;;;;;;;;;0.20;91.96;102167.34;5030150;28;19928;-75
2022/01/21 07:56:17;;;;;;;;;;;;;;;0.28;92.08;102163.66;5025162;28;19921;-75
2022/01/21 07:58:42;;;;;;;;;;;;;;;0.25;92.10;102163.75;5023186;28;19921;-75
2022/01/21 08:01:07;;;;;;;;;;;;;;;0.30;92.15;102161.88;5034117;28;19932;-76
2022/01/21 08:03:33;;;;;;;;;;;;;;;0.38;91.78;102168.56;5038229;28;20277;-76
2022/01/21 08:05:58;;;;;;;;;;;;;;;0.46;91.29;102172.69;5032499;28;20274;-76
2022/01/21 08:08:26;;;;;;;;;;;;;;;0.45;91.24;102168.38;5020392;28;19921;-76
2022/01/21 08:10:51;;;;;;;;;;;;;;;0.45;91.08;102177.00;5012992;28;20453;-76
2022/01/21 08:13:16;;;;;;;;;;;;;;;0.52;91.46;102186.34;5006680;28;20020;-76
2022/01/21 08:15:42;;;;;;;;;;;;;;;0.59;91.29;102181.81;5009358;28;19944;-76
2022/01/21 08:18:09;;;;;;;;;;;;;;;0.62;91.20;102184.31;5005039;28;19926;-76
2022/01/21 08:20:34;;;;;;;;;;;;;;;0.65;91.07;102189.44;5043164;23;20301;-79
2022/01/21 08:23:00;;;;;;;;;;;;;;;0.73;90.73;102189.19;5020470;28;19925;-79
2022/01/21 08:25:25;;;;;;;;;;;;;;;0.74;90.88;102190.88;5029898;28;19925;-79
2022/01/21 08:27:50;;;;;;;;;;;;;;;0.80;90.75;102195.91;5018899;28;20373;-79
2022/01/21 08:30:15;;;;;;;;;;;;;;;0.82;90.74;102202.78;5012044;28;19929;-79
2022/01/21 08:32:41;;;;;;;;;;;;;;;0.87;90.37;102196.59;5008469;28;20325;-79
2022/01/21 08:35:07;;;;;;;;;;;;;;;0.90;90.40;102191.28;5006018;28;19921;-78
2022/01/21 08:37:32;;;;;;;;;;;;;;;0.88;90.14;102190.47;5008822;28;20437;-78
2022/01/21 08:39:57;;;;;;;;;;;;;;;0.88;89.83;102187.88;4995041;28;20020;-79
2022/01/21 08:42:23;;;;;;;;;;;;;;;0.89;89.91;102189.59;5009683;28;19925;-79
2022/01/21 08:44:48;;;;;;;;;;;;;;;0.96;90.39;102188.50;5010545;28;19933;-79
2022/01/21 08:47:15;;;;;;;;;;;;;;;1.01;90.05;102197.00;5009978;28;19933;-79
2022/01/21 08:49:40;;;;;;;;;;;;;;;1.03;89.94;102188.25;5014130;28;19960;-79
2022/01/21 08:52:06;;;;;;;;;;;;;;;1.04;89.11;102197.75;5014246;28;19925;-79
2022/01/21 08:54:31;;;;;;;;;;;;;;;1.07;89.70;102212.41;5030989;28;19921;-79
2022/01/21 08:56:56;;;;;;;;;;;;;;;1.01;88.51;102215.25;4995034;28;19921;-79
2022/01/21 08:59:22;;;;;;;;;;;;;;;1.09;89.57;102217.59;5031224;28;19921;-79
2022/01/21 09:01:51;;;;;;;;;;;;;;;1.12;88.56;102223.56;5030889;28;20407;-79
2022/01/21 09:04:17;;;;;;;;;;;;;;;1.07;89.31;102217.63;5030319;28;19925;-79
2022/01/21 09:06:42;;;;;;;;;;;;;;;1.07;89.28;102220.25;5030256;28;20000;-79
2022/01/21 09:09:07;;;;;;;;;;;;;;;1.16;89.31;102216.50;5031982;28;19925;-78
2022/01/21 09:11:33;;;;;;;;;;;;;;;1.16;89.08;102219.09;5028277;28;19917;-77
2022/01/21 09:13:59;;;;;;;;;;;;;;;1.18;88.87;102220.75;5012095;28;19953;-78
2022/01/21 09:16:24;;;;;;;;;;;;;;;1.15;87.86;102227.84;5028930;28;19921;-78
2022/01/21 09:18:52;;;;;;;;;;;;;;;1.19;89.06;102217.25;5006648;28;20389;-78
2022/01/21 09:21:19;;;;;;;;;;;;;;;1.27;88.77;102217.84;5029492;28;19921;-78
2022/01/21 09:23:47;;;;;;;;;;;;;;;1.33;88.70;102218.53;5030105;28;19971;-78
2022/01/21 09:26:13;;;;;;;;;;;;;;;1.24;88.55;102224.91;5026296;28;19987;-80
2022/01/21 09:28:38;;;;;;;;;;;;;;;1.33;88.18;102215.94;5011200;28;20441;-79
2022/01/21 09:31:03;;;;;;;;;;;;;;;1.32;88.18;102222.91;5030826;28;19921;-78
2022/01/21 09:33:29;;;;;;;;;;;;;;;1.16;89.62;102232.13;5032048;28;20381;-78
2022/01/21 09:35:54;;;;;;;;;;;;;;;1.21;89.01;102244.09;5029488;28;19928;-78
2022/01/21 09:38:20;;;;;;;;;;;;;;;1.30;88.99;102231.69;5031148;28;19921;-79
2022/01/21 09:40:47;;;;;;;;;;;;;;;1.48;88.47;102231.94;5013423;28;20713;-78
2022/01/21 09:43:13;;;;;;;;;;;;;;;1.54;87.99;102230.88;5014167;28;19944;-78
2022/01/21 09:45:38;;;;;;;;;;;;;;;1.60;87.39;102233.28;5031988;28;19925;-78
2022/01/21 09:48:05;;;;;;;;;;;;;;;1.73;87.10;102223.28;5030178;28;19948;-78
2022/01/21 09:50:32;;;;;;;;;;;;;;;1.76;87.24;102230.97;5031538;28;19943;-78
2022/01/21 09:52:57;;;;;;;;;;;;;;;1.83;87.15;102240.28;5030425;28;20427;-78
2022/01/21 09:55:23;;;;;;;;;;;;;;;1.95;87.21;102233.78;5005020;28;19964;-79
2022/01/21 09:57:49;;;;;;;;;;;;;;;2.03;86.84;102233.56;5013217;28;19925;-78
2022/01/21 10:00:15;;;;;;;;;;;;;;;2.06;85.85;102226.44;5011995;28;19975;-79
2022/01/21 10:02:42;;;;;;;;;;;;;;;2.11;85.74;102223.69;5029868;28;19921;-79
2022/01/21 10:05:08;;;;;;;;;;;;;;;2.13;86.50;102227.09;5030564;28;19933;-79
2022/01/21 10:07:34;;;;;;;;;;;;;;;2.26;86.48;102235.31;5012786;28;20201;-79
2022/01/21 10:10:06;;;;;;;;;;;;;;;2.26;85.39;102238.75;5030606;28;19960;-79
2022/01/21 10:12:31;;;;;;;;;;;;;;;2.29;85.17;102232.59;5012492;28;20542;-79
2022/01/21 10:14:57;;;;;;;;;;;;;;;2.45;86.07;102236.31;5029971;28;19929;-78
2022/01/21 10:17:22;;;;;;;;;;;;;;;2.45;85.36;102225.03;5023632;28;19925;-78
2022/01/21 10:19:51;;;;;;;;;;;;;;;2.51;84.83;102228.28;5026627;28;19991;-79
2022/01/21 10:22:19;;;;;;;;;;;;;;;2.47;83.94;102228.44;5012450;28;19921;-78
2022/01/21 10:24:50;;;;;;;;;;;;;;;2.49;84.96;102224.03;5011788;28;19983;-79
2022/01/21 10:27:23;;;;;;;;;;;;;;;2.53;84.66;102221.25;5012414;28;19921;-79
2022/01/21 10:29:49;;;;;;;;;;;;;;;2.53;84.30;102225.63;5030173;28;20376;-78
2022/01/21 10:32:14;;;;;;;;;;;;;;;2.56;83.90;102230.72;5030706;28;20005;-78
2022/01/21 10:34:41;;;;;;;;;;;;;;;2.55;84.37;102234.22;5007301;28;19929;-78
2022/01/21 10:37:25;;;;;;;;;;;;;;;2.59;84.15;102229.75;5011291;28;19918;-79
2022/01/21 10:40:08;;;;;;;;;;;;;;;2.57;84.07;102221.97;5025689;28;19948;-78
2022/01/21 10:42:33;;;;;;;;;;;;;;;2.64;84.17;102226.03;5025343;28;19944;-78
2022/01/21 10:44:59;;;;;;;;;;;;;;;2.67;84.32;102228.56;5028661;28;19924;-78
2022/01/21 10:47:28;;;;;;;;;;;;;;;2.73;84.33;102228.31;5029244;28;20286;-79
2022/01/21 10:49:58;;;;;;;;;;;;;;;2.79;84.15;102226.34;5029773;28;20134;-79
2022/01/21 10:52:44;;;;;;;;;;;;;;;2.66;83.70;102226.00;5011091;28;19921;-78
2022/01/21 10:55:25;;;;;;;;;;;;;;;2.57;84.29;102223.72;5009837;28;20466;-78
2022/01/21 10:58:14;;;;;;;;;;;;;;;2.52;84.04;102218.69;5010555;28;19972;-79
2022/01/21 11:00:58;;;;;;;;;;;;;;;2.43;84.31;102214.66;5029717;28;19953;-78
2022/01/21 11:03:25;;;;;;;;;;;;;;;2.53;84.03;102215.19;5014467;28;20028;-78
2022/01/21 11:05:54;;;;;;;;;;;;;;;2.55;84.15;102208.97;5014765;28;20321;-78
2022/01/21 11:08:24;;;;;;;;;;;;;;;2.57;84.37;102202.84;5032344;28;20431;-78
2022/01/21 11:10:50;;;;;;;;;;;;;;;2.55;84.11;102205.50;5030438;28;19921;-79
2022/01/21 11:13:18;;;;;;;;;;;;;;;2.48;84.15;102212.75;5031931;28;19929;-79
2022/01/21 11:15:47;;;;;;;;;;;;;;;2.57;83.73;102206.28;5014661;28;19925;-78
2022/01/21 11:18:15;;;;;;;;;;;;;;;2.62;84.03;102200.91;5031795;28;19956;-78
2022/01/21 11:20:42;;;;;;;;;;;;;;;2.63;82.97;102207.84;5012982;28;19921;-79
2022/01/21 11:23:11;;;;;;;;;;;;;;;2.62;83.15;102212.22;5014113;28;19929;-78
2022/01/21 11:25:40;;;;;;;;;;;;;;;2.63;83.59;102207.84;5013662;28;19936;-78
2022/01/21 11:28:05;;;;;;;;;;;;;;;2.60;83.58;102210.53;5012605;28;19971;-78
2022/01/21 11:30:30;;;;;;;;;;;;;;;2.58;83.51;102207.16;5032805;28;20059;-78
2022/01/21 11:32:56;;;;;;;;;;;;;;;2.60;83.38;102203.59;5032661;28;19953;-79
2022/01/21 11:35:21;;;;;;;;;;;;;;;2.58;83.95;102202.78;5013548;28;20007;-78
2022/01/21 11:37:47;;;;;;;;;;;;;;;2.48;83.49;102202.28;5031970;28;19992;-78
2022/01/21 11:40:13;;;;;;;;;;;;;;;2.49;83.80;102208.34;5014485;28;19921;-79
2022/01/21 11:42:38;;;;;;;;;;;;;;;2.48;83.77;102196.19;5010487;28;19991;-78
2022/01/21 11:45:18;;;;;;;;;;;;;;;2.53;83.67;102191.69;5034198;28;19925;-79
2022/01/21 11:48:00;;;;;;;;;;;;;;;2.48;83.61;102190.97;5033262;28;19954;-79
2022/01/21 11:50:28;;;;;;;;;;;;;;;2.45;84.03;102197.16;5025376;28;19947;-78
2022/01/21 11:52:54;;;;;;;;;;;;;;;2.49;83.94;102185.69;5015613;28;20354;-78
2022/01/21 11:55:29;;;;;;;;;;;;;;;2.60;83.23;102194.88;5030911;28;20007;-78
2022/01/21 11:58:09;;;;;;;;;;;;;;;2.51;83.83;102190.88;5031874;28;20003;-78
2022/01/21 12:00:35;;;;;;;;;;;;;;;2.62;83.93;102188.72;5032038;28;19921;-78
2022/01/21 12:03:00;;;;;;;;;;;;;;;2.75;83.80;102178.63;5013542;28;20420;-79
2022/01/21 12:05:26;;;;;;;;;;;;;;;2.85;82.99;102181.72;5030662;28;20385;-79
2022/01/21 12:07:51;;;;;;;;;;;;;;;2.82;83.07;102187.06;5029020;28;19968;-78
2022/01/21 12:10:26;;;;;;;;;;;;;;;2.82;83.26;102181.84;5030936;28;19967;-78
2022/01/21 12:12:54;;;;;;;;;;;;;;;3.01;83.13;102179.34;5028984;28;19925;-81
2022/01/21 12:16:26;;;;;;;;;;;;;;;2.99;82.77;102176.78;5012377;28;20373;-79
2022/01/21 12:20:49;;;;;;;;;;;;;;;3.01;82.33;102167.13;5030565;28;20373;-78
2022/01/21 12:23:16;;;;;;;;;;;;;;;3.14;82.75;102160.47;5029529;28;20016;-78
2022/01/21 12:26:04;;;;;;;;;;;;;;;3.26;82.60;102164.34;5030812;28;20510;-78
2022/01/21 12:28:29;;;;;;;;;;;;;;;3.30;82.31;102159.84;5000401;28;19990;-78
2022/01/21 12:30:55;;;;;;;;;;;;;;;3.16;83.21;102157.78;5031243;28;19921;-78
2022/01/21 12:33:20;;;;;;;;;;;;;;;3.37;82.38;102156.91;5030243;28;19928;-78
2022/01/21 12:35:46;;;;;;;;;;;;;;;3.52;81.71;102158.00;5031522;28;20117;-79
2022/01/21 12:40:58;;;;;;;;;;;;;;;3.60;81.39;102155.06;5024331;28;20173;-78
2022/01/21 12:43:39;;;;;;;;;;;;;;;3.70;81.34;102147.69;5012283;28;19917;-79
2022/01/21 12:46:06;;;;;;;;;;;;;;;3.61;79.96;102157.59;5009988;28;19967;-78
2022/01/21 12:48:34;;;;;;;;;;;;;;;3.74;81.53;102146.59;5032449;28;19921;-78
2022/01/21 12:51:13;;;;;;;;;;;;;;;3.67;79.93;102148.66;5013253;28;20015;-78
2022/01/21 12:55:54;;;;;;;;;;;;;;;3.67;nan;102138.19;5029707;28;19929;-79
2022/01/21 12:56:24;;;;;;;;;;;;;;;3.68;80.97;102146.88;5036485;28;20309;-79
2022/01/21 12:58:49;;;;;;;;;;;;;;;3.57;81.73;102142.94;5016758;28;19922;-79
2022/01/21 13:01:15;;;;;;;;;;;;;;;3.53;81.71;102144.03;5039321;28;20436;-78
2022/01/21 13:03:40;;;;;;;;;;;;;;;3.72;81.55;102140.59;5035701;28;19921;-78
2022/01/21 13:06:08;;;;;;;;;;;;;;;3.84;82.10;102134.81;5011739;28;20392;-78
2022/01/21 13:08:59;;;;;;;;;;;;;;;3.90;80.71;102145.00;5028995;28;20340;-78
2022/01/21 13:11:25;;;;;;;;;;;;;;;4.03;81.73;102146.16;5030026;28;20043;-78
2022/01/21 13:17:00;;;;;;;;;;;;;;;4.06;81.52;102134.69;5049653;28;19929;-78
2022/01/21 13:19:26;;;;;;;;;;;;;;;4.04;79.25;102132.13;5051224;28;20373;-78
2022/01/21 13:21:51;;;;;;;;;;;;;;;3.93;78.86;102130.94;5033540;28;19936;-78
2022/01/21 13:24:30;;;;;;;;;;;;;;;3.99;78.23;102126.28;5049899;28;19924;-78
2022/01/21 13:26:56;;;;;;;;;;;;;;;4.12;78.23;102133.56;5049124;28;20020;-77
2022/01/21 13:29:29;;;;;;;;;;;;;;;4.08;78.79;102139.88;5050773;28;20024;-79
2022/01/21 13:31:56;;;;;;;;;;;;;;;4.00;78.23;102135.84;5051924;28;19929;-78
2022/01/21 13:34:21;;;;;;;;;;;;;;;3.93;76.95;102128.31;5037719;28;20361;-77
2022/01/21 13:36:51;;;;;;;;;;;;;;;4.03;77.85;102129.63;5049217;28;20019;-78
2022/01/21 13:39:21;;;;;;;;;;;;;;;4.24;76.47;102125.13;5051174;28;19917;-78